Time,TemperatureF,DewpointF,PressureIn,WindDirection,WindDirectionDegrees,WindSpeedMPH,WindSpeedGustMPH,Humidity,HourlyPrecipIn,Conditions,Clouds,dailyrainin,SoftwareType,DateUTC
2013-04-02 00:00:00,67.2,65.1,30.03,WSW,244,0.0,0.0,93,0.00,,,0.00,WeatherTracker,2013-04-02 04:00:00,
2013-04-02 00:01:00,67.2,65.1,30.03,WSW,244,0.0,0.0,93,0.00,,,0.00,WeatherTracker,2013-04-02 04:01:00,
2013-04-02 00:06:00,67.1,65.0,30.03,WSW,244,0.0,0.0,93,0.00,,,0.00,WeatherTracker,2013-04-02 04:06:00,
2013-04-02 00:11:00,66.9,64.8,30.03,WSW,244,0.0,0.0,93,0.00,,,0.00,WeatherTracker,2013-04-02 04:11:00,
2013-04-02 00:16:00,66.8,64.7,30.02,WSW,244,0.0,0.0,93,0.00,,,0.00,WeatherTracker,2013-04-02 04:16:00,
2013-04-02 00:21:00,66.7,64.6,30.02,WSW,244,0.0,0.0,93,0.00,,,0.00,WeatherTracker,2013-04-02 04:21:00,
2013-04-02 00:26:00,66.6,64.5,30.02,WSW,244,0.0,0.0,93,0.00,,,0.00,WeatherTracker,2013-04-02 04:26:00,
2013-04-02 00:31:00,66.6,64.5,30.02,WSW,244,0.0,0.0,93,0.00,,,0.00,WeatherTracker,2013-04-02 04:31:00,
2013-04-02 00:36:00,66.4,64.0,30.02,WSW,244,0.0,0.0,92,0.00,,,0.00,WeatherTracker,2013-04-02 04:36:00,
2013-04-02 00:41:00,66.2,64.1,30.02,WSW,244,0.0,0.0,93,0.00,,,0.00,WeatherTracker,2013-04-02 04:41:00,
2013-04-02 00:46:00,66.1,64.0,30.02,WSW,244,0.0,0.0,93,0.00,,,0.00,WeatherTracker,2013-04-02 04:46:00,
2013-04-02 00:51:00,66.1,64.0,30.02,WSW,244,0.0,0.0,93,0.00,,,0.00,WeatherTracker,2013-04-02 04:51:00,
2013-04-02 00:57:00,66.0,63.9,30.02,WSW,244,0.0,0.0,93,0.00,,,0.00,WeatherTracker,2013-04-02 04:57:00,
2013-04-02 01:02:00,65.9,63.8,30.02,WSW,244,0.0,0.0,93,0.00,,,0.00,WeatherTracker,2013-04-02 05:02:00,
2013-04-02 01:07:00,65.8,63.7,30.02,WSW,244,0.0,0.0,93,0.00,,,0.00,WeatherTracker,2013-04-02 05:07:00,
2013-04-02 01:12:00,65.7,63.3,30.02,WSW,244,0.0,0.0,92,0.00,,,0.00,WeatherTracker,2013-04-02 05:12:00,
2013-04-02 01:17:00,65.6,63.5,30.01,WSW,244,0.0,0.0,93,0.00,,,0.00,WeatherTracker,2013-04-02 05:17:00,
2013-04-02 01:22:00,65.5,63.4,30.01,WSW,244,0.0,0.0,93,0.00,,,0.00,WeatherTracker,2013-04-02 05:22:00,
2013-04-02 01:27:00,65.4,63.3,30.02,WSW,244,0.0,0.0,93,0.00,,,0.00,WeatherTracker,2013-04-02 05:27:00,
2013-04-02 01:32:00,65.3,63.2,30.02,WSW,244,0.0,0.0,93,0.00,,,0.00,WeatherTracker,2013-04-02 05:32:00,
2013-04-02 01:37:00,65.3,63.5,30.01,WSW,244,0.0,0.0,94,0.00,,,0.00,WeatherTracker,2013-04-02 05:37:00,
2013-04-02 01:42:00,65.2,63.1,30.01,WSW,244,0.0,0.0,93,0.00,,,0.00,WeatherTracker,2013-04-02 05:42:00,
2013-04-02 01:47:00,65.0,62.9,30.01,WSW,244,0.0,0.0,93,0.00,,,0.00,WeatherTracker,2013-04-02 05:47:00,
2013-04-02 01:52:00,65.0,63.2,30.02,WSW,244,0.0,0.0,94,0.00,,,0.00,WeatherTracker,2013-04-02 05:52:00,
2013-04-02 01:57:00,65.0,63.2,30.02,WSW,244,0.0,0.0,94,0.00,,,0.00,WeatherTracker,2013-04-02 05:57:00,
2013-04-02 02:02:00,64.9,63.1,30.02,WSW,244,0.0,0.0,94,0.00,,,0.00,WeatherTracker,2013-04-02 06:02:00,
2013-04-02 02:07:00,64.8,63.0,30.02,WSW,244,0.0,0.0,94,0.00,,,0.00,WeatherTracker,2013-04-02 06:07:00,
2013-04-02 02:12:00,64.7,62.9,30.02,WSW,244,0.0,0.0,94,0.00,,,0.00,WeatherTracker,2013-04-02 06:12:00,
2013-04-02 02:17:00,64.6,62.8,30.02,WSW,244,0.0,0.0,94,0.00,,,0.00,WeatherTracker,2013-04-02 06:17:00,
2013-04-02 02:22:00,64.6,62.8,30.02,WSW,244,0.0,0.0,94,0.00,,,0.00,WeatherTracker,2013-04-02 06:22:00,
2013-04-02 02:27:00,64.5,62.7,30.02,WSW,244,0.0,0.0,94,0.00,,,0.00,WeatherTracker,2013-04-02 06:27:00,
2013-04-02 02:32:00,64.5,62.7,30.02,WSW,244,0.0,0.0,94,0.00,,,0.00,WeatherTracker,2013-04-02 06:32:00,
2013-04-02 02:38:00,64.4,62.6,30.02,WSW,244,0.0,0.0,94,0.00,,,0.00,WeatherTracker,2013-04-02 06:38:00,
2013-04-02 02:43:00,64.4,62.6,30.02,WSW,244,0.0,0.0,94,0.00,,,0.00,WeatherTracker,2013-04-02 06:43:00,
2013-04-02 02:48:00,64.4,62.6,30.02,WSW,244,0.0,0.0,94,0.00,,,0.00,WeatherTracker,2013-04-02 06:48:00,
2013-04-02 02:53:00,64.5,63.0,30.01,WSW,244,0.0,0.0,95,0.00,,,0.00,WeatherTracker,2013-04-02 06:53:00,
2013-04-02 02:58:00,64.5,63.0,30.01,WSW,244,0.0,0.0,95,0.00,,,0.00,WeatherTracker,2013-04-02 06:58:00,
2013-04-02 03:03:00,64.6,63.1,30.02,WSW,244,0.0,0.0,95,0.00,,,0.00,WeatherTracker,2013-04-02 07:03:00,
2013-04-02 03:08:00,64.7,63.2,30.02,WSW,244,0.0,0.0,95,0.00,,,0.00,WeatherTracker,2013-04-02 07:08:00,
2013-04-02 03:13:00,64.8,63.3,30.02,WSW,244,0.0,0.0,95,0.00,,,0.00,WeatherTracker,2013-04-02 07:13:00,
2013-04-02 03:18:00,64.9,63.4,30.02,WSW,244,0.0,0.0,95,0.00,,,0.00,WeatherTracker,2013-04-02 07:18:00,
2013-04-02 03:23:00,64.9,63.4,30.02,WSW,244,0.0,0.0,95,0.00,,,0.00,WeatherTracker,2013-04-02 07:23:00,
2013-04-02 03:28:00,64.9,63.4,30.01,WSW,244,0.0,0.0,95,0.00,,,0.00,WeatherTracker,2013-04-02 07:28:00,
2013-04-02 03:33:00,64.9,63.4,30.01,WSW,244,0.0,0.0,95,0.00,,,0.00,WeatherTracker,2013-04-02 07:33:00,
2013-04-02 03:38:00,65.0,63.5,30.01,WSW,244,0.0,0.0,95,0.00,,,0.00,WeatherTracker,2013-04-02 07:38:00,
2013-04-02 03:43:00,65.0,63.5,30.01,WSW,244,0.0,0.0,95,0.00,,,0.00,WeatherTracker,2013-04-02 07:43:00,
2013-04-02 03:48:00,65.0,63.5,30.01,WSW,244,0.0,0.0,95,0.00,,,0.00,WeatherTracker,2013-04-02 07:48:00,
2013-04-02 03:53:00,64.9,63.4,30.01,WSW,244,0.0,0.0,95,0.00,,,0.00,WeatherTracker,2013-04-02 07:53:00,
2013-04-02 03:58:00,64.9,63.4,30.01,WSW,244,0.0,0.0,95,0.00,,,0.00,WeatherTracker,2013-04-02 07:58:00,
2013-04-02 04:03:00,64.9,63.4,30.01,WSW,244,0.0,0.0,95,0.00,,,0.00,WeatherTracker,2013-04-02 08:03:00,
2013-04-02 04:08:00,64.9,63.4,30.01,WSW,244,0.0,0.0,95,0.00,,,0.00,WeatherTracker,2013-04-02 08:08:00,
2013-04-02 04:13:00,64.9,63.4,30.01,WSW,244,0.0,0.0,95,0.00,,,0.00,WeatherTracker,2013-04-02 08:13:00,
2013-04-02 04:18:00,64.9,63.4,30.01,WSW,244,0.0,0.0,95,0.00,,,0.00,WeatherTracker,2013-04-02 08:18:00,
2013-04-02 04:23:00,64.9,63.4,30.00,WSW,244,0.0,0.0,95,0.00,,,0.00,WeatherTracker,2013-04-02 08:23:00,
2013-04-02 04:28:00,64.8,63.3,30.01,WSW,244,0.0,0.0,95,0.00,,,0.00,WeatherTracker,2013-04-02 08:28:00,
2013-04-02 04:33:00,64.7,63.2,30.00,WSW,244,0.0,0.0,95,0.00,,,0.00,WeatherTracker,2013-04-02 08:33:00,
2013-04-02 04:38:00,64.7,63.2,30.01,WSW,244,0.0,0.0,95,0.00,,,0.00,WeatherTracker,2013-04-02 08:38:00,
2013-04-02 04:43:00,64.7,63.2,30.01,WSW,244,0.0,0.0,95,0.00,,,0.00,WeatherTracker,2013-04-02 08:43:00,
2013-04-02 04:48:00,64.8,63.3,30.01,WSW,244,0.0,0.0,95,0.00,,,0.00,WeatherTracker,2013-04-02 08:48:00,
2013-04-02 04:53:00,64.8,63.6,30.01,WSW,244,0.0,0.0,96,0.00,,,0.00,WeatherTracker,2013-04-02 08:53:00,
2013-04-02 10:17:00,75.7,65.6,30.09,West,269,2.0,0.0,71,0.01,,,0.01,WeatherTracker,2013-04-02 14:17:00,
2013-04-02 10:22:00,76.2,66.9,30.09,West,265,0.0,0.0,73,0.01,,,0.01,WeatherTracker,2013-04-02 14:22:00,
2013-04-02 10:27:00,77.0,66.9,30.09,WNW,286,4.0,0.0,71,0.01,,,0.01,WeatherTracker,2013-04-02 14:27:00,
2013-04-02 10:32:00,77.2,66.2,30.09,West,278,5.0,0.0,69,0.01,,,0.01,WeatherTracker,2013-04-02 14:32:00,
2013-04-02 10:37:00,77.2,66.2,30.09,WSW,255,0.0,0.0,69,0.01,,,0.01,WeatherTracker,2013-04-02 14:37:00,
2013-04-02 10:42:00,77.3,66.3,30.09,SW,229,0.0,0.0,69,0.01,,,0.01,WeatherTracker,2013-04-02 14:42:00,
2013-04-02 10:47:00,77.8,67.6,30.09,WSW,252,1.0,0.0,71,0.01,,,0.01,WeatherTracker,2013-04-02 14:47:00,
2013-04-02 10:52:00,78.2,68.0,30.09,WSW,238,1.0,0.0,71,0.01,,,0.01,WeatherTracker,2013-04-02 14:52:00,
2013-04-02 10:57:00,78.5,67.0,30.09,WNW,293,4.0,0.0,68,0.01,,,0.01,WeatherTracker,2013-04-02 14:57:00,
2013-04-02 11:02:00,78.5,67.0,30.09,WNW,292,4.0,0.0,68,0.01,,,0.01,WeatherTracker,2013-04-02 15:02:00,
2013-04-02 11:07:00,78.5,67.0,30.09,WNW,284,6.0,0.0,68,0.01,,,0.01,WeatherTracker,2013-04-02 15:07:00,
2013-04-02 11:12:00,78.5,66.6,30.09,West,265,1.0,0.0,67,0.01,,,0.01,WeatherTracker,2013-04-02 15:12:00,
2013-04-02 11:17:00,78.6,67.6,30.09,WNW,284,8.0,0.0,69,0.00,,,0.01,WeatherTracker,2013-04-02 15:17:00,
2013-04-02 11:22:00,79.2,67.7,30.09,WNW,295,6.0,0.0,68,0.00,,,0.01,WeatherTracker,2013-04-02 15:22:00,
2013-04-02 11:27:00,79.5,68.0,30.09,NW,308,2.0,0.0,68,0.00,,,0.01,WeatherTracker,2013-04-02 15:27:00,
2013-04-02 11:32:00,79.4,67.5,30.09,WNW,287,2.0,0.0,67,0.00,,,0.01,WeatherTracker,2013-04-02 15:32:00,
2013-04-02 11:37:00,79.6,67.7,30.09,WNW,294,2.0,0.0,67,0.00,,,0.01,WeatherTracker,2013-04-02 15:37:00,
2013-04-02 11:43:00,79.7,67.3,30.09,West,271,4.0,0.0,66,0.00,,,0.01,WeatherTracker,2013-04-02 15:43:00,
2013-04-02 11:48:00,79.9,66.6,30.09,WNW,290,5.0,0.0,64,0.00,,,0.01,WeatherTracker,2013-04-02 15:48:00,
2013-04-02 11:53:00,80.2,66.9,30.09,WNW,288,5.0,0.0,64,0.00,,,0.01,WeatherTracker,2013-04-02 15:53:00,
2013-04-02 11:58:00,80.5,67.2,30.09,West,280,1.0,0.0,64,0.00,,,0.01,WeatherTracker,2013-04-02 15:58:00,
2013-04-02 12:03:00,80.7,67.4,30.09,WSW,251,1.0,0.0,64,0.00,,,0.01,WeatherTracker,2013-04-02 16:03:00,
2013-04-02 12:08:00,80.7,66.4,30.09,West,261,0.0,0.0,62,0.00,,,0.01,WeatherTracker,2013-04-02 16:08:00,
2013-04-02 12:13:00,80.6,66.4,30.09,NW,321,4.0,0.0,62,0.00,,,0.01,WeatherTracker,2013-04-02 16:13:00,
2013-04-02 12:18:00,80.4,67.1,30.08,West,280,2.0,0.0,64,0.00,,,0.01,WeatherTracker,2013-04-02 16:18:00,
2013-04-02 12:23:00,80.6,67.7,30.08,WSW,242,0.0,0.0,65,0.00,,,0.01,WeatherTracker,2013-04-02 16:23:00,
2013-04-02 12:28:00,81.1,66.8,30.08,SW,232,2.0,0.0,62,0.00,,,0.01,WeatherTracker,2013-04-02 16:28:00,
2013-04-02 12:33:00,81.3,67.0,30.08,WNW,284,5.0,0.0,62,0.00,,,0.01,WeatherTracker,2013-04-02 16:33:00,
2013-04-02 12:38:00,81.4,66.6,30.08,West,277,8.0,0.0,61,0.00,,,0.01,WeatherTracker,2013-04-02 16:38:00,
2013-04-02 12:43:00,81.1,66.4,30.08,WNW,288,4.0,0.0,61,0.00,,,0.01,WeatherTracker,2013-04-02 16:43:00,
2013-04-02 12:48:00,81.2,66.4,30.08,NW,318,4.0,0.0,61,0.00,,,0.01,WeatherTracker,2013-04-02 16:48:00,
2013-04-02 12:53:00,81.2,66.9,30.08,WNW,286,8.0,0.0,62,0.00,,,0.01,WeatherTracker,2013-04-02 16:53:00,
2013-04-02 12:58:00,81.1,66.8,30.08,SW,234,0.0,0.0,62,0.00,,,0.01,WeatherTracker,2013-04-02 16:58:00,
2013-04-02 13:04:00,81.0,66.3,30.08,WSW,252,2.0,0.0,61,0.00,,,0.01,WeatherTracker,2013-04-02 17:04:00,
2013-04-02 13:08:00,81.0,66.7,30.08,NW,306,4.0,0.0,62,0.00,,,0.01,WeatherTracker,2013-04-02 17:08:00,
2013-04-02 13:14:00,81.0,64.8,30.08,SW,225,4.0,0.0,58,0.00,,,0.01,WeatherTracker,2013-04-02 17:14:00,
2013-04-02 13:19:00,80.9,63.7,30.07,West,265,2.0,0.0,56,0.00,,,0.01,WeatherTracker,2013-04-02 17:19:00,
2013-04-02 13:24:00,81.4,64.2,30.07,WNW,283,0.0,0.0,56,0.00,,,0.01,WeatherTracker,2013-04-02 17:24:00,
2013-04-02 13:29:00,82.0,64.7,30.08,West,279,3.0,0.0,56,0.00,,,0.01,WeatherTracker,2013-04-02 17:29:00,
2013-04-02 13:34:00,82.0,64.2,30.07,WSW,254,1.0,0.0,55,0.00,,,0.01,WeatherTracker,2013-04-02 17:34:00,
2013-04-02 13:39:00,81.9,62.5,30.07,WSW,257,5.0,0.0,52,0.00,,,0.01,WeatherTracker,2013-04-02 17:39:00,
2013-04-02 13:44:00,81.9,63.1,30.07,WSW,248,1.0,0.0,53,0.00,,,0.01,WeatherTracker,2013-04-02 17:44:00,
2013-04-02 13:49:00,81.8,61.9,30.07,WNW,300,6.0,0.0,51,0.00,,,0.01,WeatherTracker,2013-04-02 17:49:00,
2013-04-02 13:54:00,81.5,63.7,30.06,West,259,2.0,0.0,55,0.00,,,0.01,WeatherTracker,2013-04-02 17:54:00,
2013-04-02 20:12:00,70.0,61.7,30.03,WNW,286,3.0,0.0,75,0.00,,,0.01,WeatherTracker,2013-04-03 00:12:00,
2013-04-02 20:17:00,69.9,61.6,30.04,WNW,282,0.0,0.0,75,0.00,,,0.01,WeatherTracker,2013-04-03 00:17:00,
2013-04-02 20:22:00,69.8,61.5,30.03,WNW,282,1.0,0.0,75,0.00,,,0.01,WeatherTracker,2013-04-03 00:22:00,
2013-04-02 20:27:00,69.6,61.3,30.03,WNW,294,2.0,0.0,75,0.00,,,0.01,WeatherTracker,2013-04-03 00:27:00,
2013-04-02 20:32:00,69.5,61.2,30.04,WNW,294,0.0,0.0,75,0.00,,,0.01,WeatherTracker,2013-04-03 00:32:00,
2013-04-02 20:37:00,69.4,61.5,30.04,WNW,294,0.0,0.0,76,0.00,,,0.01,WeatherTracker,2013-04-03 00:37:00,
2013-04-02 20:42:00,69.2,61.3,30.04,WNW,294,0.0,0.0,76,0.00,,,0.01,WeatherTracker,2013-04-03 00:42:00,
2013-04-02 20:47:00,69.0,61.5,30.04,WNW,294,0.0,0.0,77,0.00,,,0.01,WeatherTracker,2013-04-03 00:47:00,
2013-04-02 20:52:00,68.9,61.4,30.04,WNW,294,1.0,0.0,77,0.00,,,0.01,WeatherTracker,2013-04-03 00:52:00,
2013-04-02 20:57:00,68.7,61.2,30.04,WNW,294,0.0,0.0,77,0.00,,,0.01,WeatherTracker,2013-04-03 00:57:00,
2013-04-02 21:03:00,68.5,61.0,30.04,WNW,294,0.0,0.0,77,0.00,,,0.01,WeatherTracker,2013-04-03 01:03:00,
2013-04-02 21:08:00,68.3,61.2,30.04,WNW,294,0.0,0.0,78,0.00,,,0.01,WeatherTracker,2013-04-03 01:08:00,
2013-04-02 21:13:00,68.1,61.0,30.04,WNW,294,0.0,0.0,78,0.00,,,0.01,WeatherTracker,2013-04-03 01:13:00,
2013-04-02 21:18:00,68.0,60.9,30.04,WNW,294,0.0,0.0,78,0.00,,,0.01,WeatherTracker,2013-04-03 01:18:00,
2013-04-02 21:23:00,67.8,60.7,30.04,WNW,294,0.0,0.0,78,0.00,,,0.01,WeatherTracker,2013-04-03 01:23:00,
2013-04-02 21:28:00,67.7,60.9,30.05,WNW,294,0.0,0.0,79,0.00,,,0.01,WeatherTracker,2013-04-03 01:28:00,
2013-04-02 21:33:00,67.7,60.9,30.05,WNW,294,0.0,0.0,79,0.00,,,0.01,WeatherTracker,2013-04-03 01:33:00,
2013-04-02 21:38:00,67.6,60.8,30.05,WNW,294,0.0,0.0,79,0.00,,,0.01,WeatherTracker,2013-04-03 01:38:00,
2013-04-02 21:43:00,67.4,60.7,30.05,WNW,294,0.0,0.0,79,0.00,,,0.01,WeatherTracker,2013-04-03 01:43:00,
2013-04-02 21:48:00,67.2,60.5,30.05,WNW,294,0.0,0.0,79,0.00,,,0.01,WeatherTracker,2013-04-03 01:48:00,
2013-04-02 21:53:00,67.0,60.6,30.05,WNW,294,0.0,0.0,80,0.00,,,0.01,WeatherTracker,2013-04-03 01:53:00,
2013-04-02 21:58:00,66.7,60.3,30.05,WNW,294,0.0,0.0,80,0.00,,,0.01,WeatherTracker,2013-04-03 01:58:00,
2013-04-02 22:03:00,66.4,60.4,30.05,WNW,294,0.0,0.0,81,0.00,,,0.01,WeatherTracker,2013-04-03 02:03:00,
2013-04-02 22:08:00,66.1,60.1,30.05,WNW,294,0.0,0.0,81,0.00,,,0.01,WeatherTracker,2013-04-03 02:08:00,
2013-04-02 22:13:00,66.0,60.0,30.05,WNW,294,0.0,0.0,81,0.00,,,0.01,WeatherTracker,2013-04-03 02:13:00,
2013-04-02 22:18:00,65.8,60.1,30.05,WNW,294,0.0,0.0,82,0.00,,,0.01,WeatherTracker,2013-04-03 02:18:00,
2013-04-02 22:23:00,65.7,60.4,30.06,WNW,294,2.0,0.0,83,0.00,,,0.01,WeatherTracker,2013-04-03 02:23:00,
2013-04-02 22:28:00,65.5,60.9,30.07,ENE,71,0.0,0.0,85,0.00,,,0.01,WeatherTracker,2013-04-03 02:28:00,
2013-04-02 22:33:00,65.6,61.3,30.07,ENE,76,4.0,0.0,86,0.00,,,0.01,WeatherTracker,2013-04-03 02:33:00,
2013-04-02 22:38:00,65.8,62.1,30.07,ENE,57,0.0,0.0,88,0.00,,,0.01,WeatherTracker,2013-04-03 02:38:00,
2013-04-02 22:43:00,65.9,62.2,30.07,East,80,2.0,0.0,88,0.00,,,0.01,WeatherTracker,2013-04-03 02:43:00,
2013-04-02 22:48:00,66.0,62.3,30.07,East,82,0.0,0.0,88,0.00,,,0.01,WeatherTracker,2013-04-03 02:48:00,